createdAt,value
2018-01-27T00:00:30.071Z,30.30
2018-01-27T00:01:35.816Z,30.98
2018-01-27T00:02:41.691Z,31.55
2018-01-27T00:03:46.944Z,27.23
2018-01-27T00:04:53.133Z,34.15
2018-01-27T00:05:58.966Z,30.92
2018-01-27T00:07:04.719Z,30.73
2018-01-27T00:08:10.527Z,30.50
2018-01-27T00:09:16.933Z,31.05
2018-01-27T00:10:22.386Z,33.45
2018-01-27T00:11:28.125Z,31.52
2018-01-27T00:12:33.892Z,32.13
2018-01-27T00:13:39.525Z,34.38
2018-01-27T00:14:45.831Z,30.90
2018-01-27T00:15:51.627Z,36.15
2018-01-27T00:16:58.147Z,32.33
2018-01-27T00:18:03.908Z,40.88
2018-01-27T00:19:09.695Z,33.70
2018-01-27T00:20:15.316Z,34.50
2018-01-27T00:21:21.842Z,30.45
2018-01-27T00:22:26.762Z,34.33
2018-01-27T00:23:32.525Z,35.60
2018-01-27T00:24:39.087Z,34.70
2018-01-27T00:25:45.610Z,33.10
2018-01-27T00:26:51.340Z,35.72
2018-01-27T00:27:57.080Z,32.15
2018-01-27T00:29:02.868Z,32.15
2018-01-27T00:30:09.407Z,35.17
2018-01-27T00:31:15.163Z,38.92
2018-01-27T00:32:21.157Z,40.15
2018-01-27T00:33:26.899Z,37.58
2018-01-27T00:34:32.667Z,36.30
2018-01-27T00:35:38.496Z,35.67
2018-01-27T00:36:44.260Z,32.63
2018-01-27T00:37:50.019Z,37.08
2018-01-27T00:38:55.779Z,33.47
2018-01-27T00:40:02.285Z,29.73
2018-01-27T00:41:08.161Z,33.38
2018-01-27T00:42:14.732Z,37.08
2018-01-27T00:43:21.260Z,32.28
2018-01-27T00:44:26.992Z,30.58
2018-01-27T00:45:32.751Z,33.80
2018-01-27T00:46:38.550Z,29.25
2018-01-27T00:47:44.318Z,36.70
2018-01-27T00:48:50.074Z,30.35
2018-01-27T00:49:55.834Z,32.05
2018-01-27T00:51:01.587Z,35.40
2018-01-27T00:52:07.360Z,25.75
2018-01-27T00:53:13.126Z,35.58
2018-01-27T00:54:18.872Z,30.83
2018-01-27T00:55:24.618Z,35.05
2018-01-27T00:56:30.353Z,33.20
2018-01-27T00:57:36.122Z,27.10
2018-01-27T00:58:41.883Z,34.10
2018-01-27T00:59:48.414Z,31.77
2018-01-27T01:00:54.167Z,34.33
2018-01-27T01:01:59.943Z,31.90
2018-01-27T01:03:05.732Z,33.47
2018-01-27T01:04:11.524Z,33.08
2018-01-27T01:05:17.265Z,32.33
2018-01-27T01:06:23.003Z,29.63
2018-01-27T01:07:28.756Z,32.17
2018-01-27T01:08:34.548Z,32.70
2018-01-27T01:09:40.293Z,31.23
2018-01-27T01:10:46.034Z,34.20
2018-01-27T01:11:51.799Z,31.35
2018-01-27T01:12:58.318Z,34.85
2018-01-27T01:14:04.118Z,37.55
2018-01-27T01:15:09.848Z,34.88
2018-01-27T01:16:16.361Z,32.72
2018-01-27T01:17:22.113Z,31.30
2018-01-27T01:18:27.877Z,34.42
2018-01-27T01:19:34.633Z,37.08
2018-01-27T01:20:40.384Z,36.72
2018-01-27T01:21:46.905Z,33.53
2018-01-27T01:22:52.649Z,37.58
2018-01-27T01:23:58.380Z,41.33
2018-01-27T01:25:04.160Z,38.67
2018-01-27T01:26:09.897Z,34.15
2018-01-27T01:27:15.628Z,34.53
2018-01-27T01:28:21.368Z,33.88
2018-01-27T01:29:27.110Z,36.83
2018-01-27T01:30:32.911Z,36.22
2018-01-27T01:31:38.672Z,35.25
2018-01-27T01:32:44.421Z,40.03
2018-01-27T01:33:50.153Z,35.85
2018-01-27T01:34:55.023Z,35.42
2018-01-27T01:36:01.666Z,38.45
2018-01-27T01:37:07.415Z,33.88
2018-01-27T01:38:13.938Z,35.80
2018-01-27T01:39:19.687Z,35.95
2018-01-27T01:40:25.444Z,35.08
2018-01-27T01:41:31.209Z,32.92
2018-01-27T01:42:43.051Z,35.40
2018-01-27T01:43:54.029Z,32.00
2018-01-27T01:44:59.763Z,37.75
2018-01-27T01:46:05.515Z,50.47
2018-01-27T01:47:11.289Z,39.50
2018-01-27T01:48:17.784Z,38.92
2018-01-27T01:49:26.078Z,32.40
2018-01-27T01:50:31.838Z,34.92
2018-01-27T01:51:37.572Z,33.45
2018-01-27T01:52:44.151Z,34.15
2018-01-27T01:53:50.075Z,37.83
2018-01-27T01:54:55.806Z,40.85
2018-01-27T01:56:01.568Z,33.25
2018-01-27T01:57:07.303Z,36.50
2018-01-27T01:58:13.075Z,33.72
2018-01-27T01:59:18.830Z,36.33
2018-01-27T02:00:25.328Z,36.92
2018-01-27T02:01:31.082Z,36.33
2018-01-27T02:02:36.807Z,38.10
2018-01-27T02:03:42.591Z,36.67
2018-01-27T02:04:48.343Z,38.40
2018-01-27T02:05:54.088Z,37.85
2018-01-27T02:06:59.175Z,36.35
2018-01-27T02:08:04.926Z,34.45
2018-01-27T02:09:10.685Z,34.90
2018-01-27T02:10:16.438Z,35.22
2018-01-27T02:11:21.937Z,34.10
2018-01-27T02:12:27.673Z,34.63
2018-01-27T02:13:33.406Z,35.17
2018-01-27T02:14:39.178Z,31.08
2018-01-27T02:15:44.917Z,33.30
2018-01-27T02:16:50.701Z,35.20
2018-01-27T02:17:57.239Z,39.65
2018-01-27T02:19:03.125Z,32.47
2018-01-27T02:20:08.887Z,38.72
2018-01-27T02:21:14.628Z,38.03
2018-01-27T02:22:20.364Z,32.63
2018-01-27T02:23:26.103Z,39.08
2018-01-27T02:24:31.516Z,32.30
2018-01-27T02:25:38.029Z,42.08
2018-01-27T02:26:43.753Z,39.35
2018-01-27T02:27:49.499Z,34.92
2018-01-27T02:28:55.251Z,37.08
2018-01-27T02:30:00.993Z,33.95
2018-01-27T02:31:06.773Z,36.78
2018-01-27T02:32:13.270Z,35.22
2018-01-27T02:33:19.009Z,37.28
2018-01-27T02:34:24.762Z,37.13
2018-01-27T02:35:30.492Z,33.55
2018-01-27T02:36:36.267Z,37.25
2018-01-27T02:37:42.019Z,41.20
2018-01-27T02:38:47.776Z,36.30
2018-01-27T02:39:54.038Z,39.38
2018-01-27T02:40:59.646Z,35.95
2018-01-27T02:42:05.083Z,36.72
2018-01-27T02:43:10.862Z,34.58
2018-01-27T02:44:16.600Z,37.00
2018-01-27T02:45:21.685Z,36.92
2018-01-27T02:46:27.464Z,40.00
2018-01-27T02:47:33.255Z,35.35
2018-01-27T02:48:39.005Z,43.35
2018-01-27T02:49:44.724Z,39.55
2018-01-27T02:50:50.479Z,34.80
2018-01-27T02:51:55.898Z,34.58
2018-01-27T02:53:01.679Z,35.58
2018-01-27T02:54:08.196Z,39.25
2018-01-27T02:55:13.960Z,39.10
2018-01-27T02:56:19.719Z,40.50
2018-01-27T02:57:25.230Z,36.20
2018-01-27T02:58:30.808Z,36.55
2018-01-27T02:59:37.474Z,38.10
2018-01-27T03:00:43.239Z,35.78
2018-01-27T03:01:48.973Z,37.83
2018-01-27T03:02:54.719Z,42.05
2018-01-27T03:04:00.483Z,43.17
2018-01-27T03:05:06.220Z,34.60
2018-01-27T03:06:11.952Z,38.42
2018-01-27T03:07:17.708Z,40.53
2018-01-27T03:08:23.470Z,35.92
2018-01-27T03:09:29.248Z,37.80
2018-01-27T03:10:34.993Z,37.40
2018-01-27T03:11:40.722Z,37.40
2018-01-27T03:12:46.472Z,40.08
2018-01-27T03:13:52.207Z,40.10
2018-01-27T03:14:58.747Z,40.05
2018-01-27T03:16:04.478Z,37.10
2018-01-27T03:17:10.276Z,35.10
2018-01-27T03:18:16.003Z,41.37
2018-01-27T03:19:21.776Z,42.13
2018-01-27T03:20:27.367Z,34.42
2018-01-27T03:21:33.869Z,38.83
2018-01-27T03:22:39.609Z,39.60
2018-01-27T03:23:45.371Z,35.92
2018-01-27T03:24:51.108Z,39.80
2018-01-27T03:25:56.891Z,37.58
2018-01-27T03:27:03.168Z,40.00
2018-01-27T03:28:08.582Z,40.90
2018-01-27T03:29:15.099Z,43.65
2018-01-27T03:30:20.823Z,40.40
2018-01-27T03:31:26.612Z,38.78
2018-01-27T03:32:32.367Z,42.75
2018-01-27T03:33:38.896Z,43.10
2018-01-27T03:34:44.629Z,38.92
2018-01-27T03:35:50.380Z,40.58
2018-01-27T03:36:55.793Z,38.75
2018-01-27T03:38:01.526Z,37.67
2018-01-27T03:39:07.265Z,39.85
2018-01-27T03:40:13.025Z,38.00
2018-01-27T03:41:18.755Z,39.15
2018-01-27T03:42:24.534Z,43.65
2018-01-27T03:43:30.285Z,40.95
2018-01-27T03:44:36.779Z,44.58
2018-01-27T03:45:41.862Z,38.17
2018-01-27T03:46:48.414Z,38.22
2018-01-27T03:47:54.207Z,41.10
2018-01-27T03:48:59.972Z,40.08
2018-01-27T03:50:05.740Z,43.08
2018-01-27T03:51:11.472Z,44.33
2018-01-27T03:52:17.226Z,37.20
2018-01-27T03:53:22.968Z,41.65
2018-01-27T03:54:29.480Z,39.22
2018-01-27T03:55:35.232Z,35.17
2018-01-27T03:56:40.750Z,34.50
2018-01-27T03:57:46.493Z,39.50
2018-01-27T03:58:52.264Z,41.33
2018-01-27T03:59:58.039Z,43.97
2018-01-27T04:01:04.536Z,36.13
2018-01-27T04:02:10.288Z,38.60
2018-01-27T04:03:16.035Z,40.25
2018-01-27T04:04:21.816Z,36.95
2018-01-27T04:05:28.320Z,37.65
2018-01-27T04:06:34.055Z,44.50
2018-01-27T04:07:39.801Z,38.55
2018-01-27T04:08:45.537Z,40.45
2018-01-27T04:09:50.960Z,35.50
2018-01-27T04:10:56.376Z,38.40
2018-01-27T04:12:02.896Z,39.53
2018-01-27T04:13:08.667Z,39.58
2018-01-27T04:14:14.393Z,43.00
2018-01-27T04:15:20.162Z,42.80
2018-01-27T04:16:26.678Z,37.85
2018-01-27T04:17:32.442Z,39.38
2018-01-27T04:18:38.953Z,39.97
2018-01-27T04:19:44.692Z,40.45
2018-01-27T04:20:50.460Z,38.72
2018-01-27T04:21:56.196Z,38.38
2018-01-27T04:23:01.946Z,41.28
2018-01-27T04:24:07.706Z,41.00
2018-01-27T04:25:14.963Z,40.25
2018-01-27T04:26:21.535Z,37.45
2018-01-27T04:27:28.779Z,45.25
2018-01-27T04:28:33.875Z,47.38
2018-01-27T04:29:40.181Z,41.63
2018-01-27T04:30:45.946Z,41.42
2018-01-27T04:31:52.476Z,37.15
2018-01-27T04:32:58.219Z,39.42
2018-01-27T04:34:04.176Z,40.58
2018-01-27T04:35:09.947Z,39.67
2018-01-27T04:36:16.454Z,44.83
2018-01-27T04:37:22.205Z,43.85
2018-01-27T04:38:27.963Z,44.20
2018-01-27T04:39:33.702Z,50.85
2018-01-27T04:40:39.443Z,44.78
2018-01-27T04:41:45.185Z,42.55
2018-01-27T04:42:51.098Z,45.95
2018-01-27T04:43:56.607Z,44.90
2018-01-27T04:45:02.388Z,48.28
2018-01-27T04:46:08.125Z,46.47
2018-01-27T04:47:13.872Z,45.20
2018-01-27T04:48:19.681Z,52.15
2018-01-27T04:49:25.424Z,47.28
2018-01-27T04:50:31.178Z,48.78
2018-01-27T04:51:36.928Z,47.30
2018-01-27T04:52:42.663Z,48.08
2018-01-27T04:53:48.438Z,43.67
2018-01-27T04:54:54.192Z,48.25
2018-01-27T04:55:59.922Z,45.25
2018-01-27T04:57:05.655Z,51.40
2018-01-27T04:58:11.391Z,48.10
2018-01-27T04:59:17.167Z,49.50
2018-01-27T05:00:23.685Z,43.50
2018-01-27T05:01:29.417Z,55.92
2018-01-27T05:02:35.169Z,50.35
2018-01-27T05:03:40.907Z,46.33
2018-01-27T05:04:46.661Z,49.17
2018-01-27T05:05:52.391Z,50.63
2018-01-27T05:06:57.823Z,49.65
2018-01-27T05:08:03.558Z,44.75
2018-01-27T05:09:09.281Z,45.95
2018-01-27T05:10:15.035Z,47.55
2018-01-27T05:11:20.854Z,46.25
2018-01-27T05:12:26.606Z,51.22
2018-01-27T05:13:32.350Z,43.10
2018-01-27T05:14:37.430Z,46.53
2018-01-27T05:15:44.794Z,42.10
2018-01-27T05:16:51.290Z,49.63
2018-01-27T05:17:57.797Z,44.95
2018-01-27T05:19:03.520Z,47.08
2018-01-27T05:20:09.255Z,47.35
2018-01-27T05:21:15.053Z,48.20
2018-01-27T05:22:20.776Z,47.42
2018-01-27T05:23:26.510Z,51.08
2018-01-27T05:24:32.249Z,46.20
2018-01-27T05:25:38.002Z,50.70
2018-01-27T05:26:43.776Z,44.97
2018-01-27T05:27:50.422Z,48.15
2018-01-27T05:28:56.162Z,49.55
2018-01-27T05:30:02.891Z,48.47
2018-01-27T05:31:08.629Z,47.90
2018-01-27T05:32:14.388Z,53.95
2018-01-27T05:33:20.181Z,47.88
2018-01-27T05:34:26.692Z,55.78
2018-01-27T05:35:32.443Z,46.50
2018-01-27T05:36:38.214Z,47.50
2018-01-27T05:37:44.747Z,49.10
2018-01-27T05:38:50.472Z,48.53
2018-01-27T05:39:56.200Z,48.13
2018-01-27T05:41:01.965Z,54.20
2018-01-27T05:42:07.723Z,52.62
2018-01-27T05:43:14.309Z,47.42
2018-01-27T05:44:20.818Z,52.62
2018-01-27T05:45:26.567Z,50.33
2018-01-27T05:46:32.326Z,54.75
2018-01-27T05:47:38.059Z,50.58
2018-01-27T05:48:43.820Z,54.42
2018-01-27T05:49:50.316Z,52.83
2018-01-27T05:50:56.052Z,51.13
2018-01-27T05:52:01.812Z,46.13
2018-01-27T05:53:08.053Z,49.30
2018-01-27T05:54:13.816Z,48.87
2018-01-27T05:55:19.578Z,50.72
2018-01-27T05:56:25.321Z,47.78
2018-01-27T05:57:31.812Z,50.03
2018-01-27T05:58:38.122Z,50.72
2018-01-27T05:59:43.880Z,51.58
2018-01-27T06:00:49.606Z,51.78
2018-01-27T06:01:55.353Z,55.58
2018-01-27T06:03:01.107Z,49.15
2018-01-27T06:04:08.432Z,46.20
2018-01-27T06:05:14.193Z,47.65
2018-01-27T06:06:19.938Z,49.85
2018-01-27T06:07:25.691Z,48.45
2018-01-27T06:08:31.234Z,42.25
2018-01-27T06:09:37.730Z,51.85
2018-01-27T06:10:43.931Z,56.42
2018-01-27T06:11:49.494Z,48.67
2018-01-27T06:12:55.239Z,50.63
2018-01-27T06:14:00.991Z,45.60
2018-01-27T06:15:07.285Z,55.38
2018-01-27T06:16:13.110Z,45.60
2018-01-27T06:17:18.858Z,52.97
2018-01-27T06:18:24.439Z,45.20
2018-01-27T06:19:29.992Z,46.25
2018-01-27T06:20:35.722Z,43.85
2018-01-27T06:21:42.326Z,52.47
2018-01-27T06:22:48.071Z,50.63
2018-01-27T06:23:53.632Z,40.88
2018-01-27T06:24:59.387Z,44.75
2018-01-27T06:26:04.917Z,48.95
2018-01-27T06:27:09.834Z,48.70
2018-01-27T06:28:15.589Z,48.45
2018-01-27T06:29:21.320Z,45.65
2018-01-27T06:30:27.067Z,46.70
2018-01-27T06:31:32.797Z,47.67
2018-01-27T06:32:38.556Z,44.20
2018-01-27T06:33:44.297Z,44.58
2018-01-27T06:34:49.383Z,46.65
2018-01-27T06:35:55.159Z,46.53
2018-01-27T06:37:00.565Z,50.03
2018-01-27T06:38:06.342Z,51.20
2018-01-27T06:39:12.127Z,50.85
2018-01-27T06:40:17.957Z,47.72
2018-01-27T06:41:24.556Z,64.90
2018-01-27T06:42:30.009Z,52.15
2018-01-27T06:43:35.784Z,50.97
2018-01-27T06:44:41.567Z,55.17
2018-01-27T06:45:47.308Z,56.42
2018-01-27T06:46:53.063Z,55.17
2018-01-27T06:47:58.892Z,47.53
2018-01-27T06:49:04.653Z,53.47
2018-01-27T06:50:10.386Z,48.72
2018-01-27T06:51:16.125Z,52.25
2018-01-27T06:52:21.897Z,48.50
2018-01-27T06:53:27.651Z,48.60
2018-01-27T06:54:34.927Z,52.55
2018-01-27T06:55:40.656Z,48.55
2018-01-27T06:56:46.438Z,48.05
2018-01-27T06:57:53.289Z,48.67
2018-01-27T06:58:59.029Z,51.47
2018-01-27T07:00:04.703Z,51.70
2018-01-27T07:01:10.471Z,56.45
2018-01-27T07:02:16.231Z,47.92
2018-01-27T07:03:21.986Z,52.05
2018-01-27T07:04:27.717Z,44.70
2018-01-27T07:05:33.515Z,48.85
2018-01-27T07:06:39.274Z,47.33
2018-01-27T07:07:45.014Z,48.05
2018-01-27T07:08:51.559Z,49.08
2018-01-27T07:09:56.628Z,46.92
2018-01-27T07:11:02.394Z,50.97
2018-01-27T07:12:08.919Z,48.92
2018-01-27T07:13:14.654Z,52.55
2018-01-27T07:14:20.388Z,51.80
2018-01-27T07:15:26.132Z,50.33
2018-01-27T07:16:31.907Z,54.38
2018-01-27T07:17:37.633Z,45.40
2018-01-27T07:18:43.382Z,44.72
2018-01-27T07:19:49.114Z,46.13
2018-01-27T07:20:54.859Z,47.42
2018-01-27T07:22:00.624Z,48.40
2018-01-27T07:23:07.141Z,46.63
2018-01-27T07:24:13.167Z,48.75
2018-01-27T07:25:18.264Z,48.17
2018-01-27T07:26:24.762Z,47.05
2018-01-27T07:27:30.546Z,49.70
2018-01-27T07:28:36.315Z,50.85
2018-01-27T07:29:41.865Z,49.92
2018-01-27T07:30:47.667Z,54.38
2018-01-27T07:31:53.424Z,50.08
2018-01-27T07:32:59.898Z,47.15
2018-01-27T07:34:05.813Z,49.75
2018-01-27T07:35:12.133Z,44.05
2018-01-27T07:36:17.862Z,51.22
2018-01-27T07:37:23.607Z,50.83
2018-01-27T07:38:29.368Z,46.90
2018-01-27T07:39:35.109Z,47.17
2018-01-27T07:40:40.836Z,45.53
2018-01-27T07:41:46.574Z,51.75
2018-01-27T07:42:52.309Z,46.85
2018-01-27T07:43:58.088Z,45.60
2018-01-27T07:45:03.840Z,48.13
2018-01-27T07:46:09.573Z,44.20
2018-01-27T07:47:15.329Z,49.05
2018-01-27T07:48:21.829Z,51.53
2018-01-27T07:49:27.897Z,41.63
2018-01-27T07:50:33.749Z,47.17
2018-01-27T07:51:39.562Z,41.35
2018-01-27T07:52:44.440Z,46.83
2018-01-27T07:53:50.937Z,45.78
2018-01-27T07:54:56.388Z,42.13
2018-01-27T07:56:02.137Z,54.35
2018-01-27T07:57:07.880Z,41.60
2018-01-27T07:58:13.657Z,52.22
2018-01-27T07:59:20.171Z,45.75
2018-01-27T08:00:25.934Z,45.67
2018-01-27T08:01:31.664Z,45.85
2018-01-27T08:02:37.400Z,46.72
2018-01-27T08:03:43.159Z,45.15
2018-01-27T08:04:48.906Z,41.95
2018-01-27T08:05:54.687Z,46.75
2018-01-27T08:07:00.100Z,46.10
2018-01-27T08:08:06.599Z,46.35
2018-01-27T08:09:12.333Z,45.20
2018-01-27T08:10:18.075Z,48.67
2018-01-27T08:11:23.834Z,46.83
2018-01-27T08:12:29.593Z,38.28
2018-01-27T08:13:35.350Z,38.40
2018-01-27T08:14:41.099Z,42.47
2018-01-27T08:15:46.837Z,48.10
2018-01-27T08:16:54.128Z,45.83
2018-01-27T08:18:00.657Z,45.95
2018-01-27T08:19:06.404Z,41.15
2018-01-27T08:20:12.144Z,48.40
2018-01-27T08:21:17.878Z,42.88
2018-01-27T08:22:23.663Z,42.67
2018-01-27T08:23:30.176Z,44.95
2018-01-27T08:24:36.713Z,45.85
2018-01-27T08:25:42.442Z,43.28
2018-01-27T08:26:47.869Z,48.55
2018-01-27T08:27:53.713Z,42.58
2018-01-27T08:28:59.446Z,42.88
2018-01-27T08:30:05.238Z,50.53
2018-01-27T08:31:10.968Z,51.08
2018-01-27T08:32:16.531Z,44.70
2018-01-27T08:33:23.816Z,53.30
2018-01-27T08:34:29.566Z,52.42
2018-01-27T08:35:36.087Z,57.50
2018-01-27T08:36:41.825Z,47.83
2018-01-27T08:37:47.592Z,57.03
2018-01-27T08:38:54.170Z,50.25
2018-01-27T08:39:59.901Z,59.67
2018-01-27T08:41:06.430Z,50.67
2018-01-27T08:42:12.168Z,52.58
2018-01-27T08:43:17.911Z,45.55
2018-01-27T08:44:23.722Z,45.85
2018-01-27T08:45:30.471Z,52.65
2018-01-27T08:46:36.990Z,45.88
2018-01-27T08:47:42.750Z,46.60
2018-01-27T08:48:49.272Z,45.25
2018-01-27T08:49:55.034Z,50.10
2018-01-27T08:51:00.776Z,46.78
2018-01-27T08:52:06.542Z,42.95
2018-01-27T08:53:13.064Z,50.20
2018-01-27T08:54:18.838Z,48.35
2018-01-27T08:55:26.106Z,47.22
2018-01-27T08:56:31.859Z,46.20
2018-01-27T08:57:38.385Z,46.90
2018-01-27T08:58:44.163Z,42.45
2018-01-27T08:59:50.673Z,44.92
2018-01-27T09:00:56.554Z,49.28
2018-01-27T09:02:02.297Z,49.78
2018-01-27T09:03:08.089Z,48.33
2018-01-27T09:04:14.628Z,54.58
2018-01-27T09:05:20.389Z,52.30
2018-01-27T09:06:26.196Z,50.80
2018-01-27T09:07:31.971Z,49.20
2018-01-27T09:08:37.727Z,51.88
2018-01-27T09:09:43.488Z,49.65
2018-01-27T09:10:50.238Z,52.90
2018-01-27T09:11:56.009Z,49.60
2018-01-27T09:13:02.533Z,47.70
2018-01-27T09:14:08.267Z,42.15
2018-01-27T09:15:14.069Z,43.72
2018-01-27T09:16:19.835Z,47.53
2018-01-27T09:17:25.618Z,46.50
2018-01-27T09:18:31.044Z,46.83
2018-01-27T09:19:36.811Z,44.75
2018-01-27T09:20:43.329Z,44.70
2018-01-27T09:21:49.061Z,46.80
2018-01-27T09:22:54.875Z,53.45
2018-01-27T09:24:00.860Z,49.20
2018-01-27T09:25:06.290Z,48.70
2018-01-27T09:26:12.039Z,59.05
2018-01-27T09:27:17.811Z,61.35
2018-01-27T09:28:24.353Z,55.20
2018-01-27T09:29:30.512Z,55.75
2018-01-27T09:30:37.043Z,49.15
2018-01-27T09:31:43.339Z,56.25
2018-01-27T09:32:50.074Z,50.17
2018-01-27T09:33:56.625Z,50.58
2018-01-27T09:35:03.343Z,51.03
2018-01-27T09:36:08.858Z,51.70
2018-01-27T09:37:15.381Z,50.63
2018-01-27T09:38:22.160Z,52.00
2018-01-27T09:39:29.592Z,49.28
2018-01-27T09:40:36.981Z,48.13
2018-01-27T09:41:42.909Z,49.35
2018-01-27T09:42:48.664Z,57.33
2018-01-27T09:43:54.431Z,48.42
2018-01-27T09:44:59.922Z,57.60
2018-01-27T09:46:06.596Z,48.72
2018-01-27T09:47:12.350Z,53.58
2018-01-27T09:48:18.215Z,49.53
2018-01-27T09:49:24.010Z,51.37
2018-01-27T09:50:30.549Z,49.17
2018-01-27T09:51:36.311Z,48.60
2018-01-27T09:52:41.958Z,48.23
2018-01-27T09:53:47.853Z,53.35
2018-01-27T09:54:53.599Z,49.15
2018-01-27T09:55:59.379Z,51.72
2018-01-27T09:57:05.911Z,50.97
2018-01-27T09:58:12.513Z,46.15
2018-01-27T09:59:18.282Z,43.13
2018-01-27T10:00:23.794Z,50.35
2018-01-27T10:01:29.677Z,47.65
2018-01-27T10:02:35.548Z,43.63
2018-01-27T10:03:41.296Z,45.05
2018-01-27T10:04:48.135Z,47.47
2018-01-27T10:05:53.887Z,46.92
2018-01-27T10:07:01.177Z,46.13
2018-01-27T10:08:06.929Z,45.88
2018-01-27T10:09:14.392Z,47.65
2018-01-27T10:10:21.093Z,49.83
2018-01-27T10:11:26.852Z,47.88
2018-01-27T10:12:32.619Z,47.03
2018-01-27T10:13:38.349Z,43.28
2018-01-27T10:14:44.121Z,54.53
2018-01-27T10:15:52.552Z,46.10
2018-01-27T10:16:59.071Z,57.47
2018-01-27T10:18:04.855Z,55.97
2018-01-27T10:19:11.390Z,49.35
2018-01-27T10:20:17.157Z,49.10
2018-01-27T10:21:22.653Z,43.17
2018-01-27T10:22:28.408Z,51.63
2018-01-27T10:23:34.189Z,48.20
2018-01-27T10:24:39.971Z,54.05
2018-01-27T10:25:45.972Z,51.35
2018-01-27T10:26:52.512Z,47.28
2018-01-27T10:27:59.069Z,45.67
2018-01-27T10:29:05.748Z,47.78
2018-01-27T10:30:11.112Z,53.90
2018-01-27T10:31:16.864Z,56.60
2018-01-27T10:32:22.645Z,53.22
2018-01-27T10:33:28.519Z,50.45
2018-01-27T10:34:35.157Z,43.72
2018-01-27T10:35:41.001Z,46.30
2018-01-27T10:36:47.787Z,48.00
2018-01-27T10:37:54.322Z,42.33
2018-01-27T10:39:00.887Z,48.47
2018-01-27T10:40:08.115Z,47.50
2018-01-27T10:41:14.728Z,52.10
2018-01-27T10:42:21.076Z,44.92
2018-01-27T10:43:26.889Z,48.42
2018-01-27T10:44:33.713Z,51.95
2018-01-27T10:45:39.739Z,46.75
2018-01-27T10:46:46.248Z,51.55
2018-01-27T10:47:52.040Z,50.35
2018-01-27T10:48:57.710Z,52.13
2018-01-27T10:50:03.564Z,54.33
2018-01-27T10:51:09.388Z,46.15
2018-01-27T10:52:15.010Z,45.55
2018-01-27T10:53:21.553Z,47.65
2018-01-27T10:54:29.680Z,46.67
2018-01-27T10:55:36.507Z,48.95
2018-01-27T10:56:43.804Z,43.65
2018-01-27T10:57:51.651Z,48.92
2018-01-27T10:58:58.485Z,44.25
2018-01-27T11:00:05.371Z,44.45
2018-01-27T11:01:11.503Z,47.05
2018-01-27T11:02:19.430Z,44.72
2018-01-27T11:03:25.276Z,52.28
2018-01-27T11:04:31.695Z,42.70
2018-01-27T11:05:37.156Z,44.63
2018-01-27T11:06:43.941Z,45.40
2018-01-27T11:07:52.281Z,42.88
2018-01-27T11:08:58.070Z,46.22
2018-01-27T11:10:05.818Z,45.90
2018-01-27T11:11:13.139Z,45.30
2018-01-27T11:12:20.671Z,49.28
2018-01-27T11:13:27.635Z,45.83
2018-01-27T11:14:34.938Z,43.08
2018-01-27T11:15:40.766Z,40.22
2018-01-27T11:16:48.117Z,43.10
2018-01-27T11:17:53.880Z,46.63
2018-01-27T11:19:02.457Z,42.60
2018-01-27T11:20:08.219Z,44.53
2018-01-27T11:21:14.809Z,41.35
2018-01-27T11:22:20.319Z,39.53
2018-01-27T11:23:26.189Z,41.40
2018-01-27T11:24:32.026Z,39.78
2018-01-27T11:25:38.553Z,42.05
2018-01-27T11:26:44.329Z,42.58
2018-01-27T11:27:51.972Z,41.97
2018-01-27T11:28:57.756Z,40.08
2018-01-27T11:30:07.033Z,37.92
2018-01-27T11:31:13.614Z,46.15
2018-01-27T11:32:20.310Z,43.33
2018-01-27T11:33:26.286Z,39.65
2018-01-27T11:34:32.263Z,40.75
2018-01-27T11:35:38.154Z,41.00
2018-01-27T11:36:45.129Z,40.88
2018-01-27T11:37:50.884Z,42.55
2018-01-27T11:38:56.660Z,44.55
2018-01-27T11:40:03.299Z,39.65
2018-01-27T11:41:10.145Z,43.10
2018-01-27T11:42:16.007Z,39.85
2018-01-27T11:43:22.749Z,41.67
2018-01-27T11:44:28.786Z,43.78
2018-01-27T11:45:34.636Z,40.67
2018-01-27T11:46:40.482Z,41.90
2018-01-27T11:47:48.213Z,34.83
2018-01-27T11:48:54.039Z,44.30
2018-01-27T11:49:59.845Z,39.55
2018-01-27T11:51:05.779Z,45.28
2018-01-27T11:52:11.738Z,43.83
2018-01-27T11:53:17.686Z,40.12
2018-01-27T11:54:23.477Z,51.83
2018-01-27T11:55:29.542Z,44.70
2018-01-27T11:56:35.981Z,45.75
2018-01-27T11:57:42.126Z,43.63
2018-01-27T11:58:49.022Z,42.08
2018-01-27T11:59:54.795Z,41.50
2018-01-27T12:01:00.637Z,39.22
2018-01-27T12:02:06.790Z,37.95
2018-01-27T12:03:13.553Z,48.35
2018-01-27T12:04:19.708Z,43.08
2018-01-27T12:05:27.989Z,45.47
2018-01-27T12:06:34.147Z,44.92
2018-01-27T12:07:40.207Z,43.58
2018-01-27T12:08:45.689Z,46.97
2018-01-27T12:09:51.688Z,51.90
2018-01-27T12:10:58.197Z,47.10
2018-01-27T12:12:05.104Z,53.53
2018-01-27T12:13:11.188Z,43.42
2018-01-27T12:14:17.292Z,45.53
2018-01-27T12:15:24.385Z,46.72
2018-01-27T12:16:30.537Z,46.13
2018-01-27T12:17:36.390Z,42.67
2018-01-27T12:18:42.629Z,40.63
2018-01-27T12:19:48.891Z,45.47
2018-01-27T12:20:55.056Z,44.90
2018-01-27T12:22:01.193Z,41.70
2018-01-27T12:23:07.338Z,48.45
2018-01-27T12:24:13.496Z,47.13
2018-01-27T12:25:21.584Z,47.95
2018-01-27T12:26:27.748Z,51.33
2018-01-27T12:27:33.940Z,46.75
2018-01-27T12:28:40.101Z,42.13
2018-01-27T12:29:47.650Z,44.35
2018-01-27T12:30:54.801Z,39.92
2018-01-27T12:32:01.652Z,44.40
2018-01-27T12:33:07.242Z,43.60
2018-01-27T12:34:14.274Z,43.70
2018-01-27T12:35:20.421Z,46.58
2018-01-27T12:36:27.299Z,39.78
2018-01-27T12:37:34.274Z,37.95
2018-01-27T12:38:40.214Z,40.03
2018-01-27T12:39:46.306Z,40.75
2018-01-27T12:40:53.022Z,46.78
2018-01-27T12:41:59.068Z,43.92
2018-01-27T12:43:05.122Z,40.55
2018-01-27T12:44:11.064Z,35.83
2018-01-27T12:45:17.230Z,35.85
2018-01-27T12:46:22.817Z,44.30
2018-01-27T12:47:29.635Z,36.72
2018-01-27T12:48:37.229Z,38.08
2018-01-27T12:49:43.254Z,34.28
2018-01-27T12:50:48.993Z,40.22
2018-01-27T12:51:54.836Z,37.05
2018-01-27T12:53:00.664Z,36.63
2018-01-27T12:54:07.249Z,44.80
2018-01-27T12:55:13.225Z,37.10
2018-01-27T12:56:20.159Z,40.15
2018-01-27T12:57:26.238Z,38.25
2018-01-27T12:58:32.137Z,40.92
2018-01-27T12:59:38.103Z,43.65
2018-01-27T13:00:44.171Z,43.90
2018-01-27T13:01:50.291Z,31.35
2018-01-27T13:02:57.490Z,28.42
2018-01-27T13:04:04.278Z,32.08
2018-01-27T13:05:10.394Z,34.13
2018-01-27T13:06:16.585Z,34.17
2018-01-27T13:07:23.420Z,36.20
2018-01-27T13:08:29.553Z,35.88
2018-01-27T13:09:35.624Z,33.15
2018-01-27T13:10:41.809Z,36.08
2018-01-27T13:11:48.594Z,31.95
2018-01-27T13:12:54.665Z,36.22
2018-01-27T13:14:01.432Z,31.40
2018-01-27T13:15:08.097Z,33.97
2018-01-27T13:16:14.394Z,30.42
2018-01-27T13:17:21.417Z,35.50
2018-01-27T13:18:27.576Z,30.92
2018-01-27T13:19:33.606Z,30.50
2018-01-27T13:20:39.671Z,34.33
2018-01-27T13:21:46.207Z,32.20
2018-01-27T13:22:52.390Z,36.08
2018-01-27T13:23:58.552Z,33.17
2018-01-27T13:25:04.232Z,31.97
2018-01-27T13:26:10.384Z,31.92
2018-01-27T13:27:16.822Z,33.63
2018-01-27T13:28:23.105Z,33.17
2018-01-27T13:29:29.384Z,34.72
2018-01-27T13:30:35.496Z,32.50
2018-01-27T13:31:42.333Z,29.15
2018-01-27T13:32:48.979Z,35.40
2018-01-27T13:33:55.186Z,36.47
2018-01-27T13:35:02.932Z,36.10
2018-01-27T13:36:09.026Z,34.67
2018-01-27T13:37:15.204Z,29.45
2018-01-27T13:38:21.343Z,33.55
2018-01-27T13:39:27.331Z,28.95
2018-01-27T13:40:34.261Z,37.58
2018-01-27T13:41:40.344Z,32.38
2018-01-27T13:42:46.425Z,33.92
2018-01-27T13:43:53.235Z,29.77
2018-01-27T13:44:59.441Z,32.78
2018-01-27T13:46:06.410Z,31.27
2018-01-27T13:47:12.531Z,26.60
2018-01-27T13:48:18.508Z,25.92
2018-01-27T13:49:24.509Z,29.48
2018-01-27T13:50:31.101Z,29.30
2018-01-27T13:51:37.125Z,27.90
2018-01-27T13:52:43.197Z,29.60
2018-01-27T13:53:49.745Z,20.42
2018-01-27T13:54:55.965Z,18.37
2018-01-27T13:56:02.238Z,24.67
2018-01-27T13:57:08.185Z,17.55
2018-01-27T13:58:15.150Z,23.27
2018-01-27T13:59:21.268Z,20.92
2018-01-27T14:00:28.228Z,25.30
2018-01-27T14:01:34.610Z,18.77
2018-01-27T14:02:40.765Z,23.77
2018-01-27T14:03:46.932Z,23.58
2018-01-27T14:04:52.902Z,23.30
2018-01-27T14:05:58.913Z,24.25
2018-01-27T14:07:05.144Z,26.25
2018-01-27T14:08:11.144Z,24.15
2018-01-27T14:09:17.258Z,25.00
2018-01-27T14:10:23.414Z,27.15